Time;durP1;ratioP1;P1;durP2;ratioP2;P2;SDS_P1;SDS_P2;PMS_P1;PMS_P2;Temp;Humidity;BMP_temperature;BMP_pressure;BME280_temperature;BME280_humidity;BME280_pressure;Samples;Min_cycle;Max_cycle;Signal;HPM_P1;HPM_P2
2024/04/07 00:01:20;;;;;;;6.38;2.97;;;;;;;11.14;100.00;93200.72;4888990;29;20033;-82
2024/04/07 00:03:46;;;;;;;7.75;3.25;;;;;;;11.11;100.00;93194.19;4896641;29;20048;-82
2024/04/07 00:06:12;;;;;;;6.80;3.30;;;;;;;11.10;100.00;93189.22;4885869;29;20229;-82
2024/04/07 00:08:37;;;;;;;8.82;3.72;;;;;;;11.08;100.00;93194.75;4864021;29;20045;-82
2024/04/07 00:11:03;;;;;;;9.25;3.85;;;;;;;11.09;100.00;93188.44;4875256;29;20062;-81
2024/04/07 00:13:30;;;;;;;9.57;3.65;;;;;;;11.07;100.00;93187.94;4874781;29;20045;-82
2024/04/07 00:15:57;;;;;;;6.18;3.30;;;;;;;11.06;100.00;93183.75;4899308;29;20092;-82
2024/04/07 00:18:23;;;;;;;9.18;3.53;;;;;;;11.05;100.00;93184.78;4899046;29;20048;-82
2024/04/07 00:21:02;;;;;;;9.52;3.13;;;;;;;11.03;100.00;93173.81;4899407;29;20670;-82
2024/04/07 00:23:28;;;;;;;8.07;3.33;;;;;;;11.05;100.00;93179.56;4898999;29;20041;-82
2024/04/07 00:25:54;;;;;;;6.05;3.35;;;;;;;11.03;100.00;93176.41;4901371;29;20024;-82
2024/04/07 00:28:21;;;;;;;11.40;3.75;;;;;;;11.01;100.00;93176.72;4879696;29;20070;-81
2024/04/07 00:30:47;;;;;;;9.32;3.70;;;;;;;11.01;100.00;93168.03;4850056;29;20053;-82
2024/04/07 00:33:13;;;;;;;6.68;3.30;;;;;;;10.98;100.00;93161.50;4877355;29;20041;-82
2024/04/07 00:35:39;;;;;;;8.02;3.50;;;;;;;10.92;100.00;93153.97;4884265;29;20024;-82
2024/04/07 00:38:06;;;;;;;8.43;3.78;;;;;;;10.95;100.00;93156.81;4868407;29;20097;-82
2024/04/07 00:40:32;;;;;;;8.55;4.00;;;;;;;10.94;100.00;93160.53;4885299;29;20047;-82
2024/04/07 00:42:57;;;;;;;9.90;3.78;;;;;;;10.93;100.00;93148.47;4884662;29;20036;-82
2024/04/07 00:45:23;;;;;;;8.10;3.65;;;;;;;10.92;100.00;93136.44;4884641;29;20029;-81
2024/04/07 00:47:51;;;;;;;9.27;4.00;;;;;;;10.93;100.00;93151.06;4867370;29;20041;-82
2024/04/07 00:50:17;;;;;;;9.30;4.00;;;;;;;10.92;100.00;93149.53;4888295;29;20043;-82
2024/04/07 00:52:43;;;;;;;9.48;4.00;;;;;;;10.92;100.00;93154.75;4901953;29;20425;-82
2024/04/07 00:55:08;;;;;;;11.77;3.90;;;;;;;10.89;100.00;93142.19;4902444;29;20043;-82
2024/04/07 00:57:38;;;;;;;8.43;3.90;;;;;;;10.91;100.00;93142.72;4901953;29;20048;-82
2024/04/07 01:00:04;;;;;;;9.68;4.30;;;;;;;10.90;100.00;93142.97;4901660;29;20383;-82
2024/04/07 01:02:33;;;;;;;10.02;4.25;;;;;;;10.92;100.00;93143.47;4894135;29;20029;-82
2024/04/07 01:04:58;;;;;;;9.43;4.40;;;;;;;10.92;100.00;93143.47;4882951;29;20045;-82
2024/04/07 01:07:24;;;;;;;9.35;4.18;;;;;;;10.91;100.00;93134.06;4882749;29;20236;-81
2024/04/07 01:09:51;;;;;;;9.75;4.60;;;;;;;10.91;100.00;93131.44;4875197;29;20045;-82
2024/04/07 01:12:16;;;;;;;7.47;4.07;;;;;;;10.88;100.00;93138.03;4866324;29;20491;-82
2024/04/07 01:14:42;;;;;;;9.50;3.95;;;;;;;10.86;100.00;93123.63;4882764;29;20052;-81
2024/04/07 01:17:07;;;;;;;9.63;4.38;;;;;;;10.83;100.00;93138.84;4877982;29;20048;-82
2024/04/07 01:19:33;;;;;;;12.02;5.40;;;;;;;10.82;100.00;93133.84;4883190;29;20070;-82
2024/04/07 01:22:04;;;;;;;10.00;4.63;;;;;;;10.83;100.00;93127.59;4882592;29;20033;-82
2024/04/07 01:24:30;;;;;;;11.88;4.80;;;;;;;10.77;100.00;93118.19;4882408;29;20100;-82
2024/04/07 01:26:55;;;;;;;12.07;4.10;;;;;;;10.80;100.00;93120.25;4873402;29;20422;-82
2024/04/07 01:29:21;;;;;;;13.45;4.53;;;;;;;10.81;100.00;93119.22;4882071;29;20063;-82
2024/04/07 01:31:47;;;;;;;7.85;4.38;;;;;;;10.79;100.00;93113.47;4883175;29;20096;-82
2024/04/07 01:34:13;;;;;;;11.27;4.32;;;;;;;10.77;100.00;93120.81;4883778;29;20045;-82
2024/04/07 01:36:41;;;;;;;9.75;4.60;;;;;;;10.76;100.00;93106.94;4882661;29;20088;-82
2024/04/07 01:39:07;;;;;;;10.68;4.90;;;;;;;10.76;100.00;93106.13;4883402;29;20040;-82
2024/04/07 01:41:36;;;;;;;10.00;4.90;;;;;;;10.74;100.00;93103.81;4884115;29;20089;-82
2024/04/07 01:44:01;;;;;;;11.10;5.22;;;;;;;10.75;100.00;93101.97;4883891;29;20044;-81
2024/04/07 01:46:27;;;;;;;9.75;5.22;;;;;;;10.74;100.00;93100.38;4866922;29;20126;-81
2024/04/07 01:48:53;;;;;;;10.68;5.25;;;;;;;10.73;100.00;93104.84;4882833;29;20041;-82
2024/04/07 01:51:21;;;;;;;18.90;5.03;;;;;;;10.70;100.00;93097.53;4895940;29;20032;-82
2024/04/07 01:53:46;;;;;;;10.68;5.18;;;;;;;10.68;100.00;93104.09;4884506;29;20048;-81
2024/04/07 01:56:12;;;;;;;11.85;4.75;;;;;;;10.66;100.00;93101.75;4881503;29;20454;-81
2024/04/07 01:58:37;;;;;;;9.43;4.55;;;;;;;10.66;100.00;93099.13;4882513;29;20041;-82
2024/04/07 02:01:06;;;;;;;9.07;3.67;;;;;;;10.63;100.00;93095.22;4882779;29;20032;-81
2024/04/07 02:03:33;;;;;;;8.40;4.05;;;;;;;10.62;100.00;93098.09;4882987;29;20395;-82
2024/04/07 02:06:03;;;;;;;10.25;4.35;;;;;;;10.61;100.00;93101.78;4882768;29;20399;-82
2024/04/07 02:08:29;;;;;;;11.02;4.10;;;;;;;10.58;100.00;93097.88;4882134;29;20076;-82
2024/04/07 02:10:55;;;;;;;9.32;4.05;;;;;;;10.59;100.00;93102.03;4882289;29;20029;-82
2024/04/07 02:13:20;;;;;;;7.28;4.10;;;;;;;10.59;100.00;93096.81;4882978;29;20104;-82
2024/04/07 02:15:46;;;;;;;8.48;4.53;;;;;;;10.59;100.00;93099.44;4865604;29;20033;-82
2024/04/07 02:18:12;;;;;;;10.50;4.55;;;;;;;10.57;100.00;93100.75;4882602;29;20078;-82
2024/04/07 02:20:38;;;;;;;9.07;4.55;;;;;;;10.60;100.00;93097.59;4882313;29;20407;-81
2024/04/07 02:23:04;;;;;;;11.32;4.35;;;;;;;10.58;100.00;93100.50;4882553;29;20049;-82
2024/04/07 02:25:30;;;;;;;9.60;4.85;;;;;;;10.56;100.00;93094.75;4882368;29;20415;-81
2024/04/07 02:27:56;;;;;;;10.65;4.63;;;;;;;10.55;100.00;93087.91;4892456;29;20096;-82
2024/04/07 02:30:22;;;;;;;13.18;4.93;;;;;;;10.52;100.00;93088.47;4867100;29;20053;-82
2024/04/07 02:32:50;;;;;;;10.18;4.68;;;;;;;10.53;100.00;93084.00;4898100;29;20049;-82
2024/04/07 02:35:17;;;;;;;10.57;4.40;;;;;;;10.51;100.00;93092.13;4901203;29;20092;-82
2024/04/07 02:37:44;;;;;;;13.75;4.75;;;;;;;10.51;100.00;93084.28;4900595;29;20063;-82
2024/04/07 02:40:10;;;;;;;9.60;4.18;;;;;;;10.52;100.00;93090.31;4882771;29;20056;-81
2024/04/07 02:42:41;;;;;;;15.27;4.72;;;;;;;10.52;100.00;93082.47;4881166;29;20041;-82
2024/04/07 02:48:05;;;;;;;11.52;5.38;;;;;;;10.50;100.00;93077.50;4862274;29;20112;-82
2024/04/07 02:50:35;;;;;;;12.52;4.82;;;;;;;10.49;100.00;93081.16;4847394;29;20050;-82
2024/04/07 02:53:01;;;;;;;14.32;4.60;;;;;;;10.48;100.00;93076.97;4886142;29;20053;-81
2024/04/07 02:55:27;;;;;;;11.95;5.18;;;;;;;10.48;100.00;93076.97;4862509;29;20089;-82
2024/04/07 02:57:53;;;;;;;9.95;4.75;;;;;;;10.45;100.00;93072.28;4863250;29;20538;-82
2024/04/07 03:00:20;;;;;;;9.98;5.03;;;;;;;10.48;100.00;93070.97;4876008;29;20037;-82
2024/04/07 03:02:46;;;;;;;12.77;5.90;;;;;;;10.48;100.00;93065.72;4865985;29;20037;-82
2024/04/07 03:05:13;;;;;;;12.95;5.60;;;;;;;10.47;100.00;93067.56;4863127;29;20044;-81
2024/04/07 03:07:39;;;;;;;11.05;5.57;;;;;;;10.44;100.00;93060.25;4863232;29;20070;-81
2024/04/07 03:10:08;;;;;;;10.07;5.70;;;;;;;10.47;100.00;93066.75;4831441;29;20037;-81
2024/04/07 03:12:37;;;;;;;10.63;5.28;;;;;;;10.44;100.00;93068.09;4863813;29;20049;-82
2024/04/07 03:15:03;;;;;;;11.35;5.45;;;;;;;10.46;100.00;93068.59;4881851;29;20517;-82
2024/04/07 03:17:30;;;;;;;15.80;5.10;;;;;;;10.44;100.00;93065.47;4881713;29;20037;-82
2024/04/07 03:19:57;;;;;;;11.23;5.00;;;;;;;10.46;100.00;93065.22;4877534;29;20032;-82
2024/04/07 03:22:23;;;;;;;10.48;5.50;;;;;;;10.46;100.00;93066.00;4875084;29;20049;-81
2024/04/07 03:24:49;;;;;;;11.10;5.80;;;;;;;10.46;100.00;93063.38;4864277;29;20049;-80
2024/04/07 03:27:15;;;;;;;9.57;4.65;;;;;;;10.47;100.00;93069.38;4854917;29;20041;-81
2024/04/07 03:29:42;;;;;;;9.32;5.00;;;;;;;10.46;100.00;93063.38;4880149;29;20539;-81
2024/04/07 03:32:08;;;;;;;10.00;4.80;;;;;;;10.47;100.00;93074.63;4857373;29;20052;-81
2024/04/07 03:34:33;;;;;;;12.05;4.88;;;;;;;10.46;100.00;93071.22;4889854;29;20029;-83
2024/04/07 03:37:04;;;;;;;13.98;4.82;;;;;;;10.45;100.00;93071.47;4878712;29;20057;-82
2024/04/07 03:39:31;;;;;;;9.73;4.25;;;;;;;10.46;100.00;93071.22;4888552;29;20138;-83
2024/04/07 03:41:56;;;;;;;8.27;4.35;;;;;;;10.44;100.00;93068.09;4897423;29;20057;-80
2024/04/07 03:44:22;;;;;;;8.32;3.70;;;;;;;10.42;100.00;93072.81;4892498;29;20109;-80
2024/04/07 03:46:48;;;;;;;11.32;4.63;;;;;;;10.41;100.00;93072.03;4870705;29;20532;-82
2024/04/07 03:49:14;;;;;;;9.05;4.40;;;;;;;10.39;100.00;93060.28;4877442;29;20475;-82
2024/04/07 03:51:40;;;;;;;11.45;3.83;;;;;;;10.34;100.00;93061.09;4888240;29;20408;-80
2024/04/07 03:54:07;;;;;;;8.23;3.53;;;;;;;10.31;100.00;93060.84;4871223;29;20041;-81
2024/04/07 03:56:32;;;;;;;8.93;4.10;;;;;;;10.29;100.00;93057.69;4876246;29;20041;-81
2024/04/07 03:58:58;;;;;;;9.07;3.92;;;;;;;10.28;100.00;93051.66;4887368;29;20517;-81
2024/04/07 04:01:24;;;;;;;7.25;3.85;;;;;;;10.30;100.00;93056.66;4872590;29;20514;-81
2024/04/07 04:03:50;;;;;;;8.68;3.50;;;;;;;10.28;100.00;93059.50;4862549;29;20124;-80
2024/04/07 04:06:16;;;;;;;6.82;3.40;;;;;;;10.26;100.00;93056.38;4862670;29;20033;-81
2024/04/07 04:08:41;;;;;;;5.78;3.03;;;;;;;10.20;100.00;93053.03;4861494;29;20046;-82
2024/04/07 04:11:09;;;;;;;7.35;3.67;;;;;;;10.17;100.00;93050.94;4856940;29;20091;-82
2024/04/07 04:13:38;;;;;;;12.23;4.10;;;;;;;10.17;100.00;93050.94;4880133;29;20439;-82
2024/04/07 04:16:05;;;;;;;12.27;4.00;;;;;;;10.15;100.00;93058.25;4876564;29;20041;-82
2024/04/07 04:18:32;;;;;;;6.72;3.33;;;;;;;10.14;100.00;93055.94;4864527;29;20044;-82
2024/04/07 04:20:58;;;;;;;5.47;3.15;;;;;;;10.11;100.00;93057.25;4880731;29;20068;-82
2024/04/07 04:23:26;;;;;;;8.98;3.35;;;;;;;10.10;100.00;93058.28;4863270;29;20132;-81
2024/04/07 04:25:52;;;;;;;6.20;3.38;;;;;;;10.09;100.00;93059.34;4871098;29;20039;-81
2024/04/07 04:28:18;;;;;;;9.70;3.55;;;;;;;10.09;100.00;93061.97;4880579;29;20442;-83
2024/04/07 04:30:56;;;;;;;5.57;3.20;;;;;;;10.08;100.00;93064.84;4879652;29;20550;-82
2024/04/07 04:33:22;;;;;;;11.98;3.17;;;;;;;10.08;100.00;93062.22;4880150;29;20040;-82
2024/04/07 04:35:49;;;;;;;7.97;3.70;;;;;;;10.06;100.00;93054.63;4875191;29;20025;-82
2024/04/07 04:38:16;;;;;;;8.70;3.50;;;;;;;10.05;100.00;93057.53;4880729;29;20035;-82
2024/04/07 04:40:59;;;;;;;6.32;3.10;;;;;;;10.03;100.00;93049.94;4889095;29;20039;-82
2024/04/07 04:43:25;;;;;;;7.30;3.22;;;;;;;10.04;100.00;93059.34;4890248;29;20041;-82
2024/04/07 04:46:13;;;;;;;6.45;3.22;;;;;;;10.01;100.00;93057.28;4880201;29;20459;-83
2024/04/07 04:48:39;;;;;;;7.47;3.17;;;;;;;10.02;100.00;93058.88;4863137;29;20045;-83
2024/04/07 04:51:05;;;;;;;9.90;3.20;;;;;;;10.02;100.00;93058.88;4866342;29;20033;-82
2024/04/07 04:53:31;;;;;;;7.90;3.38;;;;;;;10.00;100.00;93055.72;4885380;29;20091;-82
2024/04/07 04:56:03;;;;;;;8.10;3.60;;;;;;;10.00;100.00;93060.97;4875792;29;20278;-82
2024/04/07 04:58:30;;;;;;;10.45;4.15;;;;;;;9.98;100.00;93052.59;4861577;29;20042;-82
2024/04/07 05:00:56;;;;;;;11.15;4.47;;;;;;;10.01;100.00;93057.28;4896267;29;20088;-82
2024/04/07 05:03:28;;;;;;;6.40;3.50;;;;;;;10.04;100.00;93058.56;4867351;29;20534;-82
2024/04/07 05:05:53;;;;;;;5.90;3.40;;;;;;;10.04;100.00;93066.44;4861549;29;20045;-82
2024/04/07 05:08:22;;;;;;;11.77;3.85;;;;;;;10.03;100.00;93068.25;4887247;29;20033;-82
2024/04/07 05:10:48;;;;;;;7.65;3.78;;;;;;;10.03;100.00;93054.41;4897615;29;20178;-82
2024/04/07 05:13:16;;;;;;;8.35;3.80;;;;;;;10.04;100.00;93061.97;4866645;29;20038;-82
2024/04/07 05:15:49;;;;;;;7.72;3.80;;;;;;;10.02;100.00;93058.88;4892652;29;20352;-82
2024/04/07 05:18:21;;;;;;;10.90;4.05;;;;;;;10.06;100.00;93062.47;4890903;29;20518;-82
2024/04/07 05:20:49;;;;;;;7.10;3.70;;;;;;;10.11;100.00;93061.69;4872246;29;20041;-82
2024/04/07 05:23:15;;;;;;;7.90;3.72;;;;;;;10.12;100.00;93063.25;4869614;29;20021;-81
2024/04/07 05:25:41;;;;;;;7.10;3.45;;;;;;;10.17;100.00;93066.63;4883772;29;20037;-81
2024/04/07 05:28:12;;;;;;;6.88;2.92;;;;;;;10.23;100.00;93066.63;4882846;29;20459;-80
2024/04/07 05:30:38;;;;;;;6.28;3.25;;;;;;;10.27;100.00;93073.66;4882641;29;20587;-80
2024/04/07 05:33:05;;;;;;;7.78;3.58;;;;;;;10.33;100.00;93069.97;4872695;29;20111;-82
2024/04/07 05:35:35;;;;;;;7.78;3.72;;;;;;;10.41;100.00;93066.03;4868240;29;20109;-82
2024/04/07 05:38:01;;;;;;;9.40;3.60;;;;;;;10.49;100.00;93073.31;4862778;29;20037;-82
2024/04/07 05:40:27;;;;;;;7.15;3.42;;;;;;;10.55;100.00;93082.69;4862891;29;20029;-82
2024/04/07 05:42:54;;;;;;;7.60;3.88;;;;;;;10.60;100.00;93084.50;4885251;29;20056;-81
2024/04/07 05:45:20;;;;;;;8.60;3.15;;;;;;;10.69;100.00;93082.09;4879777;29;20073;-82
2024/04/07 05:47:52;;;;;;;9.43;3.70;;;;;;;10.76;100.00;93082.56;4872916;29;20409;-82
2024/04/07 05:50:18;;;;;;;;;;;;;;;10.84;100.00;93082.00;4879232;29;20772;-82
2024/04/07 05:52:44;;;;;;;7.60;3.50;;;;;;;10.92;100.00;93084.03;4881698;29;20043;-82
2024/04/07 05:55:10;;;;;;;8.02;3.53;;;;;;;11.06;100.00;93084.19;4847207;29;20392;-82
2024/04/07 05:57:36;;;;;;;6.05;3.17;;;;;;;11.20;100.00;93079.88;4863376;29;20055;-82
2024/04/07 06:00:09;;;;;;;8.00;3.38;;;;;;;11.35;100.00;93083.41;4867797;29;20033;-82
2024/04/07 06:02:38;;;;;;;7.72;3.40;;;;;;;11.45;100.00;93078.09;4881899;29;20360;-82
2024/04/07 06:05:04;;;;;;;9.90;3.25;;;;;;;11.54;100.00;93083.53;4871390;29;20069;-80
2024/04/07 06:07:30;;;;;;;7.30;3.20;;;;;;;11.59;100.00;93063.25;4892442;29;20509;-84
2024/04/07 06:09:56;;;;;;;10.15;3.30;;;;;;;11.69;100.00;93075.50;4882329;29;20037;-81
2024/04/07 06:12:22;;;;;;;9.65;3.47;;;;;;;11.80;100.00;93081.44;4851053;29;20373;-82
2024/04/07 06:14:48;;;;;;;9.88;3.45;;;;;;;11.89;100.00;93082.41;4878812;29;20063;-83
2024/04/07 06:17:16;;;;;;;9.05;3.25;;;;;;;11.98;100.00;93079.94;4864806;29;20041;-82
2024/04/07 06:19:41;;;;;;;5.63;3.10;;;;;;;12.11;100.00;93083.75;4848847;29;20564;-82
2024/04/07 06:22:07;;;;;;;7.97;3.78;;;;;;;12.19;100.00;93083.91;4869892;29;20062;-84
2024/04/07 06:24:33;;;;;;;6.63;3.25;;;;;;;12.27;100.00;93075.41;4884264;29;20188;-80
2024/04/07 06:26:59;;;;;;;9.75;3.50;;;;;;;12.47;100.00;93082.25;4871589;29;20044;-81
2024/04/07 06:29:25;;;;;;;6.45;3.13;;;;;;;12.71;100.00;93082.16;4866711;29;20053;-82
2024/04/07 06:31:51;;;;;;;15.40;3.03;;;;;;;13.08;100.00;93087.69;4881205;29;20036;-83
2024/04/07 06:34:16;;;;;;;6.40;3.38;;;;;;;13.56;100.00;93079.59;4891115;29;20039;-83
2024/04/07 06:36:42;;;;;;;6.38;3.10;;;;;;;14.21;100.00;93083.13;4878999;29;20499;-83
2024/04/07 06:39:08;;;;;;;6.10;2.70;;;;;;;15.05;100.00;93084.56;4868783;29;20029;-84
2024/04/07 06:41:37;;;;;;;6.95;2.65;;;;;;;16.03;100.00;93084.53;4857936;29;20032;-83
2024/04/07 06:44:03;;;;;;;5.97;2.60;;;;;;;16.94;100.00;93095.50;4860939;29;20045;-84
2024/04/07 06:46:29;;;;;;;6.05;2.60;;;;;;;17.84;100.00;93091.38;4870117;29;20410;-86
2024/04/07 06:48:55;;;;;;;7.90;2.50;;;;;;;18.54;100.00;93085.78;4859451;29;20108;-85
2024/04/07 06:51:21;;;;;;;6.38;2.50;;;;;;;18.78;97.68;93086.00;4876717;29;20066;-82
2024/04/07 06:53:47;;;;;;;5.80;2.28;;;;;;;18.83;93.07;93083.13;4878169;29;20503;-82
2024/04/07 06:56:13;;;;;;;6.20;2.55;;;;;;;18.83;90.55;93087.66;4857563;29;20144;-83
2024/04/07 06:58:39;;;;;;;4.85;2.30;;;;;;;18.60;84.16;93079.19;4843698;29;20665;-81
2024/04/07 07:01:06;;;;;;;6.40;2.60;;;;;;;18.63;93.66;93068.72;4877786;29;20037;-83
2024/04/07 07:03:33;;;;;;;6.97;2.53;;;;;;;18.27;87.62;93088.56;4861638;29;20029;-82
2024/04/07 07:06:00;;;;;;;6.35;2.60;;;;;;;18.36;90.77;93079.81;4844311;29;20048;-82
2024/04/07 07:08:25;;;;;;;13.60;4.82;;;;;;;18.20;93.65;93083.00;4857716;29;20120;-81
2024/04/07 07:11:02;;;;;;;7.88;2.50;;;;;;;17.71;99.08;93087.03;4874748;29;20039;-82
2024/04/07 07:13:30;;;;;;;7.45;2.60;;;;;;;17.72;100.00;93073.47;4880305;29;20071;-82
2024/04/07 07:15:57;;;;;;;5.63;2.78;;;;;;;17.48;100.00;93077.41;4859699;29;20035;-81
2024/04/07 07:18:23;;;;;;;4.53;2.38;;;;;;;16.99;100.00;93081.34;4881218;29;20640;-84
2024/04/07 07:20:55;;;;;;;6.18;2.47;;;;;;;16.71;100.00;93088.78;4877374;29;20537;-87
2024/04/07 07:23:22;;;;;;;;;;;;;;;16.53;100.00;93087.97;4830679;29;20033;-82
2024/04/07 07:25:48;;;;;;;5.40;2.58;;;;;;;16.61;100.00;93100.38;4859843;29;19927;-85
2024/04/07 07:28:14;;;;;;;5.03;2.28;;;;;;;16.43;99.46;93100.34;4876091;29;20049;-86
2024/04/07 07:30:39;;;;;;;8.90;2.78;;;;;;;16.29;99.04;93098.91;4880285;29;20037;-84
2024/04/07 07:33:05;;;;;;;10.63;4.25;;;;;;;16.24;100.00;93097.19;4878163;29;20052;-84
2024/04/07 07:35:32;;;;;;;6.97;3.08;;;;;;;16.07;100.00;93095.25;4877780;29;20033;-87
2024/04/07 07:37:58;;;;;;;7.20;2.45;;;;;;;16.10;100.00;93107.06;4860645;29;20044;-84
2024/04/07 07:40:24;;;;;;;6.55;2.50;;;;;;;16.09;100.00;93108.16;4871518;29;20047;-85
2024/04/07 07:42:49;;;;;;;5.78;2.78;;;;;;;16.17;100.00;93118.00;4870725;29;20041;-86
2024/04/07 07:45:16;;;;;;;5.50;2.80;;;;;;;16.25;100.00;93114.59;4876584;29;20025;-83
2024/04/07 07:47:44;;;;;;;17.80;5.80;;;;;;;16.36;100.00;93115.88;4889376;29;20494;-86
2024/04/07 07:50:09;;;;;;;7.13;2.70;;;;;;;16.12;100.00;93126.84;4890371;29;20033;-85
2024/04/07 07:52:35;;;;;;;5.32;2.17;;;;;;;16.08;100.00;93125.09;4869888;29;20184;-84
2024/04/07 07:55:00;;;;;;;7.78;2.30;;;;;;;16.18;100.00;93124.81;4862515;29;20040;-87
2024/04/07 07:57:26;;;;;;;5.07;2.20;;;;;;;16.21;100.00;93129.50;4869331;29;20504;-81
2024/04/07 07:59:53;;;;;;;7.80;2.50;;;;;;;16.38;100.00;93126.91;4860417;29;20108;-82
2024/04/07 08:02:19;;;;;;;5.15;2.70;;;;;;;16.75;100.00;93130.13;4860775;29;20049;-82
2024/04/07 08:04:45;;;;;;;10.63;2.72;;;;;;;17.11;100.00;93129.09;4878732;29;20483;-81
2024/04/07 08:07:11;;;;;;;8.73;3.15;;;;;;;17.28;100.00;93129.09;4877618;29;20039;-81
2024/04/07 08:09:36;;;;;;;8.80;2.60;;;;;;;17.28;100.00;93126.47;4877400;29;20521;-81
2024/04/07 08:12:02;;;;;;;7.32;2.65;;;;;;;17.07;100.00;93122.91;4878955;29;20108;-81
2024/04/07 08:14:28;;;;;;;7.68;2.58;;;;;;;16.84;100.00;93122.22;4878394;29;20040;-80
2024/04/07 08:16:54;;;;;;;5.47;2.60;;;;;;;16.57;100.00;93116.09;4880347;29;20499;-81
2024/04/07 08:19:20;;;;;;;8.68;2.67;;;;;;;16.38;100.00;93124.28;4877819;29;20025;-82
2024/04/07 08:21:45;;;;;;;5.07;2.58;;;;;;;16.30;100.00;93125.03;4875697;29;20067;-81
2024/04/07 08:24:11;;;;;;;6.95;2.80;;;;;;;16.39;100.00;93120.56;4855353;29;20128;-83
2024/04/07 08:26:38;;;;;;;7.40;3.05;;;;;;;16.61;100.00;93121.53;4868342;29;20068;-81
2024/04/07 08:29:04;;;;;;;7.45;2.95;;;;;;;16.72;100.00;93122.81;4871150;29;20072;-82
2024/04/07 08:31:29;;;;;;;8.25;2.95;;;;;;;16.65;100.00;93133.81;4879620;29;20037;-81
2024/04/07 08:33:56;;;;;;;5.30;2.60;;;;;;;16.74;100.00;93125.91;4878618;29;20033;-81
2024/04/07 08:36:22;;;;;;;5.93;2.90;;;;;;;16.65;100.00;93125.13;4879142;29;20527;-81
2024/04/07 08:38:47;;;;;;;8.35;2.90;;;;;;;17.06;100.00;93130.03;4879641;29;20055;-81
2024/04/07 08:41:14;;;;;;;5.68;2.70;;;;;;;17.10;100.00;93130.19;4861724;29;20094;-81
2024/04/07 08:43:41;;;;;;;6.65;2.67;;;;;;;16.96;100.00;93127.69;4879217;29;20085;-81
2024/04/07 08:46:16;;;;;;;7.15;2.80;;;;;;;16.82;100.00;93133.13;4881635;29;20044;-80
2024/04/07 08:48:44;;;;;;;6.25;3.03;;;;;;;16.94;100.00;93124.59;4883334;29;20045;-80
2024/04/07 08:51:11;;;;;;;7.07;2.80;;;;;;;17.08;100.00;93132.38;4881999;29;20069;-80
2024/04/07 08:53:39;;;;;;;5.88;2.85;;;;;;;17.01;100.00;93129.41;4867600;29;20480;-81
2024/04/07 08:56:09;;;;;;;7.10;2.97;;;;;;;16.93;100.00;93136.25;4882698;29;20590;-82
2024/04/07 08:58:36;;;;;;;6.78;2.80;;;;;;;17.08;100.00;93132.38;4882757;29;20060;-81
2024/04/07 09:01:03;;;;;;;4.45;2.30;;;;;;;16.91;100.00;93137.63;4883115;29;20548;-82
2024/04/07 09:03:30;;;;;;;5.28;2.40;;;;;;;17.10;100.00;93134.72;4884269;29;20499;-82
2024/04/07 09:05:56;;;;;;;8.88;2.78;;;;;;;17.44;100.00;93141.88;4867495;29;20044;-82
2024/04/07 09:08:22;;;;;;;5.57;2.35;;;;;;;17.63;100.00;93137.03;4873647;29;20101;-81
2024/04/07 09:10:48;;;;;;;6.25;2.47;;;;;;;17.69;100.00;93133.09;4865190;29;20120;-81
2024/04/07 09:13:16;;;;;;;8.15;2.75;;;;;;;17.79;100.00;93134.66;4865577;29;20309;-82
2024/04/07 09:15:43;;;;;;;4.97;2.10;;;;;;;17.77;99.05;93128.91;4865582;29;20025;-82
2024/04/07 09:18:11;;;;;;;5.28;2.58;;;;;;;18.21;100.00;93126.16;4864853;29;20049;-79
2024/04/07 09:20:37;;;;;;;7.70;2.95;;;;;;;18.15;100.00;93132.72;4847814;29;20072;-82
2024/04/07 09:23:03;;;;;;;6.57;2.65;;;;;;;18.50;100.00;93130.72;4846672;29;20069;-82
2024/04/07 09:25:30;;;;;;;5.97;2.55;;;;;;;18.52;96.80;93136.47;4847136;29;20531;-82
2024/04/07 09:27:57;;;;;;;4.70;2.17;;;;;;;18.79;96.89;93126.53;4846586;29;20054;-79
2024/04/07 09:30:23;;;;;;;6.57;2.72;;;;;;;18.78;93.33;93128.41;4861987;29;20506;-82
2024/04/07 09:32:49;;;;;;;8.18;2.80;;;;;;;18.86;95.99;93122.28;4846638;29;20046;-81
2024/04/07 09:35:15;;;;;;;5.15;2.40;;;;;;;18.92;91.60;93128.94;4864661;29;20475;-82
2024/04/07 09:37:42;;;;;;;6.68;2.22;;;;;;;18.95;88.77;93121.44;4862761;29;20041;-81
2024/04/07 09:40:08;;;;;;;5.10;2.63;;;;;;;19.24;88.45;93124.03;4864493;29;20041;-81
2024/04/07 09:42:37;;;;;;;5.80;2.50;;;;;;;19.50;86.33;93125.72;4864001;29;20056;-81
2024/04/07 09:45:06;;;;;;;6.07;2.63;;;;;;;19.71;83.65;93123.81;4863660;29;20041;-80
2024/04/07 09:47:34;;;;;;;5.57;2.60;;;;;;;19.87;79.24;93126.63;4847120;29;20482;-82
2024/04/07 09:50:18;;;;;;;7.32;2.63;;;;;;;19.95;79.18;93131.09;4864052;29;20037;-80
2024/04/07 09:52:51;;;;;;;6.90;2.70;;;;;;;19.88;81.84;93130.06;4863974;29;20519;-80
2024/04/07 09:55:17;;;;;;;6.50;3.15;;;;;;;19.64;86.09;93120.91;4863864;29;20070;-80
2024/04/07 09:57:44;;;;;;;8.02;2.58;;;;;;;19.27;83.91;93126.06;4846928;29;20057;-80
2024/04/07 10:00:12;;;;;;;5.93;2.42;;;;;;;19.24;86.04;93128.56;4848034;29;20105;-80
2024/04/07 10:02:39;;;;;;;4.57;2.42;;;;;;;19.18;85.56;93125.31;4864478;29;20079;-81
2024/04/07 10:05:07;;;;;;;4.82;2.50;;;;;;;19.44;82.04;93117.16;4849350;29;20038;-80
2024/04/07 10:07:35;;;;;;;5.13;2.70;;;;;;;19.16;86.38;93122.22;4883201;29;20622;-80
2024/04/07 10:10:05;;;;;;;4.88;2.45;;;;;;;19.38;83.26;93107.06;4883952;29;20487;-81
2024/04/07 10:12:31;;;;;;;5.97;2.28;;;;;;;19.75;82.09;93118.66;4867464;29;20049;-81
2024/04/07 10:15:00;;;;;;;5.07;2.30;;;;;;;19.68;81.58;93121.00;4868775;29;20037;-81
2024/04/07 10:17:30;;;;;;;5.88;2.30;;;;;;;19.60;82.66;93129.84;4877908;29;20045;-81
2024/04/07 10:19:57;;;;;;;7.20;2.58;;;;;;;19.39;81.23;93117.38;4864700;29;20104;-79
2024/04/07 10:22:24;;;;;;;4.63;2.35;;;;;;;19.36;83.95;93115.34;4877357;29;20511;-80
2024/04/07 10:24:51;;;;;;;6.05;2.60;;;;;;;19.38;81.19;93123.00;4876744;29;20037;-81
2024/04/07 10:27:24;;;;;;;4.28;1.90;;;;;;;19.10;79.38;93118.22;4871036;29;20049;-83
2024/04/07 10:29:55;;;;;;;6.93;2.33;;;;;;;19.20;79.38;93120.47;4873071;29;20649;-82
2024/04/07 10:32:29;;;;;;;3.75;2.10;;;;;;;19.37;79.68;93110.84;4871690;29;20512;-81
2024/04/07 10:35:05;;;;;;;8.73;2.38;;;;;;;19.36;78.17;93110.03;4856028;29;20037;-81
2024/04/07 10:37:33;;;;;;;10.07;2.40;;;;;;;19.62;80.26;93109.06;4859249;29;20407;-80
2024/04/07 10:40:03;;;;;;;4.50;2.38;;;;;;;19.80;80.31;93107.81;4876025;29;20033;-83
2024/04/07 10:42:28;;;;;;;6.30;2.50;;;;;;;19.99;80.41;93107.28;4852373;29;20031;-83
2024/04/07 10:44:55;;;;;;;6.63;2.47;;;;;;;20.00;77.53;93100.88;4871640;29;20479;-82
2024/04/07 10:47:21;;;;;;;6.40;2.70;;;;;;;19.79;81.48;93095.59;4879182;29;20036;-83
2024/04/07 10:49:47;;;;;;;8.38;2.50;;;;;;;19.44;80.81;93092.50;4874574;29;20037;-80
2024/04/07 10:52:14;;;;;;;7.40;2.33;;;;;;;19.24;82.32;93097.50;4862293;29;20609;-82
2024/04/07 10:54:44;;;;;;;5.03;2.30;;;;;;;19.40;79.31;93088.94;4882327;29;20036;-81
2024/04/07 10:57:15;;;;;;;5.72;2.55;;;;;;;19.59;77.02;93081.28;4862105;29;20032;-82
2024/04/07 10:59:41;;;;;;;5.25;2.20;;;;;;;19.95;71.10;93091.25;4869659;29;20057;-86
2024/04/07 11:02:12;;;;;;;6.30;2.58;;;;;;;20.00;69.03;93092.91;4868980;29;20441;-80
2024/04/07 11:04:40;;;;;;;5.03;2.38;;;;;;;19.97;71.92;93090.88;4862196;29;20504;-83
2024/04/07 11:07:06;;;;;;;5.07;2.20;;;;;;;19.92;73.45;93091.09;4879077;29;20039;-80
2024/04/07 11:09:33;;;;;;;5.75;1.90;;;;;;;19.90;68.85;93085.34;4872648;29;20029;-82
2024/04/07 11:12:00;;;;;;;4.38;2.00;;;;;;;19.88;69.00;93079.59;4872660;29;20095;-83
2024/04/07 11:14:29;;;;;;;5.30;2.20;;;;;;;20.04;66.17;93069.09;4875223;29;20040;-84
2024/04/07 11:16:55;;;;;;;5.10;2.03;;;;;;;19.90;66.13;93075.50;4877327;29;20484;-83
2024/04/07 11:19:23;;;;;;;5.38;2.22;;;;;;;19.76;67.93;93069.72;4860729;29;20123;-84
2024/04/07 11:21:49;;;;;;;5.72;1.90;;;;;;;19.85;69.77;93064.31;4863643;29;20089;-83
2024/04/07 11:24:16;;;;;;;4.53;2.20;;;;;;;20.02;68.95;93052.69;4858455;29;20044;-82
2024/04/07 11:26:42;;;;;;;5.22;2.50;;;;;;;20.05;72.33;93050.16;4878504;29;20033;-81
2024/04/07 11:29:11;;;;;;;3.70;2.00;;;;;;;19.80;73.96;93048.59;4875254;29;20145;-81